createdAt,value
2018-10-09T00:00:10.982Z,13.57
2018-10-09T00:01:19.043Z,13.51
2018-10-09T00:02:27.117Z,13.49
2018-10-09T00:03:35.165Z,13.60
2018-10-09T00:04:43.234Z,13.54
2018-10-09T00:05:51.316Z,13.51
2018-10-09T00:06:59.371Z,13.55
2018-10-09T00:08:07.439Z,13.49
2018-10-09T00:09:15.498Z,13.55
2018-10-09T00:10:23.573Z,13.55
2018-10-09T00:11:31.623Z,13.59
2018-10-09T00:12:39.709Z,13.51
2018-10-09T00:13:47.795Z,13.54
2018-10-09T00:14:55.816Z,13.54
2018-10-09T00:16:03.878Z,13.52
2018-10-09T00:17:11.966Z,13.57
2018-10-09T00:18:20.032Z,13.55
2018-10-09T00:19:28.090Z,13.52
2018-10-09T00:20:36.400Z,13.54
2018-10-09T00:21:44.209Z,13.51
2018-10-09T00:22:52.268Z,13.54
2018-10-09T00:24:00.317Z,13.57
2018-10-09T00:25:08.420Z,13.54
2018-10-09T00:26:16.447Z,13.54
2018-10-09T00:27:24.521Z,13.54
2018-10-09T00:28:32.587Z,13.62
2018-10-09T00:29:40.665Z,13.60
2018-10-09T00:30:48.722Z,13.73
2018-10-09T00:31:56.772Z,13.59
2018-10-09T00:33:04.860Z,13.69
2018-10-09T00:34:12.930Z,13.60
2018-10-09T00:35:20.974Z,13.62
2018-10-09T00:36:29.045Z,13.60
2018-10-09T00:37:37.116Z,13.57
2018-10-09T00:38:45.212Z,13.63
2018-10-09T00:39:53.239Z,13.60
2018-10-09T00:41:01.301Z,13.69
2018-10-09T00:42:09.377Z,13.59
2018-10-09T00:43:17.429Z,13.59
2018-10-09T00:44:25.484Z,13.54
2018-10-09T00:45:33.592Z,13.57
2018-10-09T00:46:41.638Z,13.59
2018-10-09T00:47:49.689Z,13.55
2018-10-09T00:48:57.768Z,13.48
2018-10-09T00:50:05.821Z,13.54
2018-10-09T00:51:13.876Z,13.52
2018-10-09T00:52:21.956Z,13.55
2018-10-09T00:53:30.016Z,13.48
2018-10-09T00:54:38.087Z,13.54
2018-10-09T00:55:46.151Z,13.67
2018-10-09T00:56:54.228Z,13.52
2018-10-09T00:58:02.287Z,13.54
2018-10-09T00:59:10.354Z,13.59
2018-10-09T01:00:18.446Z,13.60
2018-10-09T01:01:26.450Z,13.60
2018-10-09T01:02:34.541Z,13.59
2018-10-09T01:03:42.623Z,13.62
2018-10-09T01:04:50.684Z,13.71
2018-10-09T01:05:58.763Z,13.66
2018-10-09T01:07:06.812Z,13.71
2018-10-09T01:08:14.878Z,13.63
2018-10-09T01:09:22.957Z,13.70
2018-10-09T01:10:30.999Z,13.59
2018-10-09T01:11:39.065Z,13.69
2018-10-09T01:12:47.142Z,13.59
2018-10-09T01:13:55.177Z,13.69
2018-10-09T01:15:03.256Z,13.67
2018-10-09T01:16:11.321Z,13.69
2018-10-09T01:17:19.357Z,13.69
2018-10-09T01:18:27.441Z,13.67
2018-10-09T01:19:35.509Z,13.66
2018-10-09T01:20:43.562Z,13.70
2018-10-09T01:21:51.612Z,13.67
2018-10-09T01:22:59.690Z,13.77
2018-10-09T01:24:07.774Z,13.70
2018-10-09T01:25:15.838Z,13.67
2018-10-09T01:26:23.890Z,13.60
2018-10-09T01:27:31.975Z,13.66
2018-10-09T01:28:40.020Z,13.51
2018-10-09T01:29:48.085Z,13.67
2018-10-09T01:30:56.193Z,13.67
2018-10-09T01:32:04.219Z,13.64
2018-10-09T01:33:12.278Z,13.69
2018-10-09T01:34:20.352Z,13.52
2018-10-09T01:35:28.399Z,13.67
2018-10-09T01:36:36.482Z,13.69
2018-10-09T01:37:44.546Z,13.66
2018-10-09T01:38:52.597Z,13.69
2018-10-09T01:40:00.681Z,13.73
2018-10-09T01:41:08.726Z,13.67
2018-10-09T01:42:16.800Z,13.70
2018-10-09T01:43:24.868Z,13.66
2018-10-09T01:44:32.928Z,13.67
2018-10-09T01:45:41.014Z,13.73
2018-10-09T01:46:49.068Z,13.67
2018-10-09T01:47:57.131Z,13.70
2018-10-09T01:49:05.195Z,13.69
2018-10-09T01:50:13.268Z,13.66
2018-10-09T01:51:21.324Z,13.66
2018-10-09T01:52:29.373Z,13.66
2018-10-09T01:53:37.453Z,13.69
2018-10-09T01:54:45.511Z,13.63
2018-10-09T01:55:53.586Z,13.66
2018-10-09T01:57:01.657Z,13.66
2018-10-09T01:58:09.711Z,13.59
2018-10-09T01:59:17.778Z,13.67
2018-10-09T02:00:25.841Z,13.66
2018-10-09T02:01:33.904Z,13.62
2018-10-09T02:02:41.972Z,13.69
2018-10-09T02:03:50.049Z,13.64
2018-10-09T02:04:58.100Z,13.69
2018-10-09T02:06:06.159Z,13.67
2018-10-09T02:07:14.220Z,13.66
2018-10-09T02:08:22.299Z,13.66
2018-10-09T02:09:30.361Z,13.75
2018-10-09T02:10:38.419Z,13.67
2018-10-09T02:11:46.457Z,13.67
2018-10-09T02:12:54.562Z,13.71
2018-10-09T02:14:02.610Z,13.64
2018-10-09T02:15:10.686Z,13.75
2018-10-09T02:16:18.744Z,13.70
2018-10-09T02:17:26.871Z,13.69
2018-10-09T02:18:34.886Z,13.66
2018-10-09T02:19:42.942Z,13.66
2018-10-09T02:20:51.000Z,13.73
2018-10-09T02:21:59.061Z,13.62
2018-10-09T02:23:07.130Z,13.70
2018-10-09T02:24:15.201Z,13.67
2018-10-09T02:25:23.267Z,13.75
2018-10-09T02:26:31.324Z,13.69
2018-10-09T02:27:39.385Z,13.69
2018-10-09T02:28:47.451Z,13.75
2018-10-09T02:29:55.518Z,13.79
2018-10-09T02:31:03.579Z,13.71
2018-10-09T02:32:11.652Z,13.79
2018-10-09T02:33:19.731Z,13.71
2018-10-09T02:34:27.792Z,13.71
2018-10-09T02:35:35.846Z,13.75
2018-10-09T02:36:43.928Z,13.70
2018-10-09T02:37:51.969Z,13.77
2018-10-09T02:39:00.048Z,13.75
2018-10-09T02:40:08.113Z,13.75
2018-10-09T02:41:16.153Z,13.69
2018-10-09T02:42:24.239Z,13.75
2018-10-09T02:43:32.317Z,13.77
2018-10-09T02:44:40.381Z,13.75
2018-10-09T02:45:48.436Z,13.75
2018-10-09T02:46:56.480Z,13.67
2018-10-09T02:48:04.554Z,13.75
2018-10-09T02:49:12.610Z,13.71
2018-10-09T02:50:20.695Z,13.75
2018-10-09T02:51:28.758Z,13.81
2018-10-09T02:52:36.822Z,13.73
2018-10-09T02:53:44.879Z,13.73
2018-10-09T02:54:52.932Z,13.77
2018-10-09T02:56:01.004Z,13.64
2018-10-09T02:57:09.074Z,13.71
2018-10-09T02:58:17.136Z,13.73
2018-10-09T02:59:25.216Z,13.78
2018-10-09T03:00:33.255Z,13.81
2018-10-09T03:01:41.345Z,13.82
2018-10-09T03:02:49.384Z,13.79
2018-10-09T03:03:57.447Z,13.78
2018-10-09T03:05:05.527Z,13.70
2018-10-09T03:06:13.589Z,13.70
2018-10-09T03:07:21.672Z,13.73
2018-10-09T03:08:29.768Z,13.75
2018-10-09T03:09:37.784Z,13.77
2018-10-09T03:10:45.861Z,13.79
2018-10-09T03:11:53.928Z,13.64
2018-10-09T03:13:01.982Z,13.67
2018-10-09T03:14:10.038Z,13.64
2018-10-09T03:15:18.114Z,13.84
2018-10-09T03:16:26.167Z,13.81
2018-10-09T03:17:34.257Z,13.81
2018-10-09T03:18:42.310Z,13.66
2018-10-09T03:19:50.388Z,13.73
2018-10-09T03:20:58.443Z,13.67
2018-10-09T03:22:06.487Z,13.81
2018-10-09T03:23:14.558Z,13.73
2018-10-09T03:24:22.631Z,13.73
2018-10-09T03:25:30.700Z,13.70
2018-10-09T03:26:38.767Z,13.70
2018-10-09T03:27:46.845Z,13.69
2018-10-09T03:28:54.884Z,13.84
2018-10-09T03:30:02.958Z,13.69
2018-10-09T03:31:11.025Z,13.69
2018-10-09T03:32:19.089Z,13.69
2018-10-09T03:33:27.194Z,13.69
2018-10-09T03:34:35.204Z,13.75
2018-10-09T03:35:43.284Z,13.73
2018-10-09T03:36:51.354Z,13.67
2018-10-09T03:37:59.423Z,13.69
2018-10-09T03:39:07.464Z,13.85
2018-10-09T03:40:15.545Z,13.64
2018-10-09T03:41:23.611Z,13.77
2018-10-09T03:42:31.697Z,13.69
2018-10-09T03:43:39.750Z,13.69
2018-10-09T03:44:47.807Z,13.77
2018-10-09T03:45:55.863Z,13.78
2018-10-09T03:47:03.943Z,13.77
2018-10-09T03:48:12.000Z,13.67
2018-10-09T03:49:20.076Z,13.70
2018-10-09T03:50:28.126Z,13.78
2018-10-09T03:51:36.176Z,13.71
2018-10-09T03:52:44.264Z,13.71
2018-10-09T03:53:52.313Z,13.70
2018-10-09T03:55:00.380Z,13.77
2018-10-09T03:56:08.469Z,13.73
2018-10-09T03:57:16.507Z,13.79
2018-10-09T03:58:24.599Z,13.77
2018-10-09T03:59:32.639Z,13.70
2018-10-09T04:00:40.719Z,13.77
2018-10-09T04:01:48.785Z,13.70
2018-10-09T04:02:56.823Z,13.78
2018-10-09T04:04:04.906Z,13.71
2018-10-09T04:05:12.954Z,13.75
2018-10-09T04:06:21.042Z,13.75
2018-10-09T04:07:29.106Z,13.67
2018-10-09T04:08:37.169Z,13.71
2018-10-09T04:09:45.233Z,13.67
2018-10-09T04:10:53.283Z,13.77
2018-10-09T04:12:01.348Z,13.77
2018-10-09T04:13:09.432Z,13.82
2018-10-09T04:14:17.500Z,13.66
2018-10-09T04:15:25.562Z,13.71
2018-10-09T04:16:33.614Z,13.70
2018-10-09T04:17:41.704Z,13.75
2018-10-09T04:18:49.780Z,13.77
2018-10-09T04:19:57.815Z,13.73
2018-10-09T04:21:05.875Z,13.70
2018-10-09T04:22:13.937Z,13.79
2018-10-09T04:23:22.012Z,13.70
2018-10-09T04:24:30.089Z,13.71
2018-10-09T04:25:38.134Z,13.69
2018-10-09T04:26:46.211Z,13.78
2018-10-09T04:27:54.268Z,13.75
2018-10-09T04:29:02.351Z,13.71
2018-10-09T04:30:10.388Z,13.75
2018-10-09T04:31:18.453Z,13.73
2018-10-09T04:32:26.526Z,13.75
2018-10-09T04:33:34.590Z,13.78
2018-10-09T04:34:42.679Z,13.75
2018-10-09T04:35:50.721Z,13.79
2018-10-09T04:36:58.781Z,13.71
2018-10-09T04:38:07.347Z,13.71
2018-10-09T04:39:14.942Z,13.70
2018-10-09T04:40:22.976Z,13.69
2018-10-09T04:41:31.589Z,13.62
2018-10-09T04:42:39.111Z,13.71
2018-10-09T04:43:47.175Z,13.73
2018-10-09T04:44:55.240Z,13.77
2018-10-09T04:46:03.313Z,13.70
2018-10-09T04:47:11.381Z,13.64
2018-10-09T04:48:19.441Z,13.64
2018-10-09T04:49:27.529Z,13.67
2018-10-09T04:50:35.939Z,13.71
2018-10-09T04:51:43.658Z,13.64
2018-10-09T04:52:51.740Z,13.70
2018-10-09T04:53:59.768Z,13.64
2018-10-09T04:55:07.843Z,13.71
2018-10-09T04:56:15.886Z,13.63
2018-10-09T04:57:23.956Z,13.77
2018-10-09T04:58:32.608Z,13.78
2018-10-09T04:59:40.069Z,13.79
2018-10-09T05:00:48.258Z,13.73
2018-10-09T05:01:56.202Z,13.77
2018-10-09T05:03:04.266Z,13.60
2018-10-09T05:04:12.372Z,13.77
2018-10-09T05:05:20.407Z,13.70
2018-10-09T05:06:28.882Z,13.71
2018-10-09T05:07:36.517Z,13.71
2018-10-09T05:08:44.612Z,13.69
2018-10-09T05:09:52.692Z,13.71
2018-10-09T05:11:00.784Z,13.64
2018-10-09T05:12:08.816Z,13.71
2018-10-09T05:13:16.888Z,13.62
2018-10-09T05:14:24.928Z,13.77
2018-10-09T05:15:33.006Z,13.75
2018-10-09T05:16:41.300Z,13.73
2018-10-09T05:17:49.272Z,13.78
2018-10-09T05:18:57.842Z,13.71
2018-10-09T05:20:05.258Z,13.67
2018-10-09T05:21:13.319Z,13.70
2018-10-09T05:22:21.402Z,13.64
2018-10-09T05:23:29.464Z,13.71
2018-10-09T05:24:37.551Z,13.69
2018-10-09T05:25:45.594Z,13.70
2018-10-09T05:26:53.638Z,13.63
2018-10-09T05:28:01.737Z,13.69
2018-10-09T05:29:09.794Z,13.75
2018-10-09T05:30:17.854Z,13.59
2018-10-09T05:31:25.955Z,13.62
2018-10-09T05:32:33.989Z,13.64
2018-10-09T05:33:42.033Z,13.69
2018-10-09T05:34:50.100Z,13.71
2018-10-09T05:35:58.194Z,13.77
2018-10-09T05:37:06.231Z,13.71
2018-10-09T05:38:14.307Z,13.77
2018-10-09T05:39:22.360Z,13.75
2018-10-09T05:40:30.442Z,13.81
2018-10-09T05:41:38.506Z,13.75
2018-10-09T05:42:46.558Z,13.75
2018-10-09T05:43:54.631Z,13.78
2018-10-09T05:45:02.701Z,13.70
2018-10-09T05:46:10.780Z,13.75
2018-10-09T05:47:18.842Z,13.66
2018-10-09T05:48:26.887Z,13.66
2018-10-09T05:49:34.954Z,13.69
2018-10-09T05:50:43.029Z,13.84
2018-10-09T05:51:51.082Z,13.84
2018-10-09T05:52:59.151Z,13.79
2018-10-09T05:54:07.217Z,13.77
2018-10-09T05:55:15.273Z,13.69
2018-10-09T05:56:23.365Z,13.70
2018-10-09T05:57:31.427Z,13.70
2018-10-09T05:58:39.491Z,13.82
2018-10-09T05:59:47.564Z,13.87
2018-10-09T06:00:55.640Z,13.84
2018-10-09T06:02:03.687Z,13.85
2018-10-09T06:03:11.743Z,13.89
2018-10-09T06:04:19.822Z,13.82
2018-10-09T06:05:27.875Z,13.92
2018-10-09T06:06:35.942Z,13.89
2018-10-09T06:07:44.000Z,13.95
2018-10-09T06:08:52.072Z,13.91
2018-10-09T06:10:00.150Z,13.89
2018-10-09T06:11:08.212Z,13.96
2018-10-09T06:12:16.288Z,13.95
2018-10-09T06:13:24.334Z,13.95
2018-10-09T06:14:32.405Z,13.89
2018-10-09T06:15:40.597Z,13.92
2018-10-09T06:16:48.539Z,13.96
2018-10-09T06:17:56.586Z,13.96
2018-10-09T06:19:04.680Z,13.91
2018-10-09T06:20:12.726Z,14.00
2018-10-09T06:21:20.814Z,13.99
2018-10-09T06:22:28.887Z,13.99
2018-10-09T06:23:36.953Z,14.06
2018-10-09T06:24:45.002Z,14.00
2018-10-09T06:25:53.090Z,14.04
2018-10-09T06:27:01.136Z,14.02
2018-10-09T06:28:09.290Z,14.14
2018-10-09T06:29:17.240Z,14.09
2018-10-09T06:30:25.368Z,14.14
2018-10-09T06:31:33.396Z,14.14
2018-10-09T06:32:41.457Z,14.10
2018-10-09T06:33:49.536Z,14.15
2018-10-09T06:34:57.584Z,14.25
2018-10-09T06:36:05.660Z,14.17
2018-10-09T06:37:13.783Z,14.22
2018-10-09T06:38:21.780Z,14.20
2018-10-09T06:39:29.835Z,14.21
2018-10-09T06:40:38.088Z,14.24
2018-10-09T06:41:45.969Z,14.22
2018-10-09T06:42:54.232Z,14.17
2018-10-09T06:44:02.120Z,14.28
2018-10-09T06:45:10.182Z,14.36
2018-10-09T06:46:18.253Z,14.25
2018-10-09T06:47:26.322Z,14.27
2018-10-09T06:48:34.400Z,14.32
2018-10-09T06:49:42.445Z,14.39
2018-10-09T06:50:50.511Z,14.39
2018-10-09T06:51:58.577Z,14.37
2018-10-09T06:53:06.618Z,14.37
2018-10-09T06:54:14.887Z,14.37
2018-10-09T06:55:22.767Z,14.43
2018-10-09T06:56:30.861Z,14.51
2018-10-09T06:57:38.910Z,14.52
2018-10-09T06:58:46.949Z,14.54
2018-10-09T06:59:55.036Z,14.51
2018-10-09T07:01:03.101Z,14.47
2018-10-09T07:02:11.170Z,14.52
2018-10-09T07:03:19.242Z,14.58
2018-10-09T07:04:27.274Z,14.55
2018-10-09T07:05:35.373Z,14.61
2018-10-09T07:06:43.445Z,14.58
2018-10-09T07:07:51.508Z,14.65
2018-10-09T07:08:59.583Z,14.65
2018-10-09T07:10:07.637Z,14.60
2018-10-09T07:11:15.800Z,14.62
2018-10-09T07:12:23.782Z,14.62
2018-10-09T07:13:31.823Z,14.62
2018-10-09T07:14:39.884Z,14.65
2018-10-09T07:15:47.975Z,14.62
2018-10-09T07:16:56.046Z,14.58
2018-10-09T07:18:04.089Z,14.54
2018-10-09T07:19:12.164Z,14.52
2018-10-09T07:20:20.239Z,14.57
2018-10-09T07:21:28.284Z,14.69
2018-10-09T07:22:36.354Z,14.62
2018-10-09T07:23:44.419Z,14.62
2018-10-09T07:24:52.502Z,14.64
2018-10-09T07:26:00.544Z,14.55
2018-10-09T07:27:08.639Z,14.61
2018-10-09T07:28:16.687Z,14.70
2018-10-09T07:29:24.749Z,14.64
2018-10-09T07:30:32.814Z,14.65
2018-10-09T07:31:40.888Z,14.70
2018-10-09T07:32:48.961Z,14.61
2018-10-09T07:33:57.035Z,14.69
2018-10-09T07:35:05.096Z,14.73
2018-10-09T07:36:13.149Z,14.80
2018-10-09T07:37:21.219Z,14.72
2018-10-09T07:38:29.295Z,14.88
2018-10-09T07:39:37.362Z,14.89
2018-10-09T07:40:45.459Z,14.92
2018-10-09T07:41:53.485Z,14.94
2018-10-09T07:43:01.559Z,14.95
2018-10-09T07:44:09.781Z,14.99
2018-10-09T07:45:17.689Z,15.11
2018-10-09T07:46:25.753Z,15.06
2018-10-09T07:47:33.830Z,15.14
2018-10-09T07:48:41.900Z,15.06
2018-10-09T07:49:49.963Z,15.11
2018-10-09T07:50:58.010Z,15.25
2018-10-09T07:52:06.076Z,15.27
2018-10-09T07:53:14.165Z,15.29
2018-10-09T07:54:22.208Z,15.29
2018-10-09T07:55:30.273Z,15.29
2018-10-09T07:56:38.341Z,15.28
2018-10-09T07:57:46.404Z,15.36
2018-10-09T07:58:54.477Z,15.41
2018-10-09T08:00:02.552Z,15.36
2018-10-09T08:01:10.606Z,15.38
2018-10-09T08:02:18.684Z,15.49
2018-10-09T08:03:26.768Z,15.44
2018-10-09T08:04:34.874Z,15.43
2018-10-09T08:05:42.901Z,15.54
2018-10-09T08:06:50.956Z,15.59
2018-10-09T08:07:59.026Z,15.57
2018-10-09T08:09:07.099Z,15.56
2018-10-09T08:10:15.191Z,15.54
2018-10-09T08:11:23.269Z,15.51
2018-10-09T08:12:31.295Z,15.50
2018-10-09T08:13:39.343Z,15.57
2018-10-09T08:14:47.433Z,15.56
2018-10-09T08:15:55.494Z,15.53
2018-10-09T08:17:03.555Z,15.54
2018-10-09T08:18:11.651Z,15.62
2018-10-09T08:19:19.695Z,15.65
2018-10-09T08:20:27.764Z,15.72
2018-10-09T08:21:35.813Z,15.64
2018-10-09T08:22:43.998Z,15.76
2018-10-09T08:23:51.977Z,15.80
2018-10-09T08:25:00.031Z,15.75
2018-10-09T08:26:08.085Z,15.69
2018-10-09T08:27:16.171Z,15.82
2018-10-09T08:28:24.230Z,15.82
2018-10-09T08:29:32.313Z,15.82
2018-10-09T08:30:40.371Z,15.83
2018-10-09T08:31:48.418Z,15.87
2018-10-09T08:32:56.472Z,15.92
2018-10-09T08:34:04.572Z,15.80
2018-10-09T08:35:12.623Z,15.92
2018-10-09T08:36:20.704Z,15.86
2018-10-09T08:37:28.833Z,16.01
2018-10-09T08:38:36.804Z,16.01
2018-10-09T08:39:44.898Z,16.05
2018-10-09T08:40:52.966Z,16.01
2018-10-09T08:42:01.054Z,16.12
2018-10-09T08:43:09.108Z,16.04
2018-10-09T08:44:17.184Z,16.02
2018-10-09T08:45:25.249Z,16.14
2018-10-09T08:46:33.302Z,15.97
2018-10-09T08:47:41.364Z,16.02
2018-10-09T08:48:49.435Z,16.00
2018-10-09T08:49:57.531Z,16.08
2018-10-09T08:51:05.589Z,16.11
2018-10-09T08:52:13.636Z,16.07
2018-10-09T08:53:21.709Z,16.14
2018-10-09T08:54:29.777Z,16.14
2018-10-09T08:55:37.850Z,16.20
2018-10-09T08:56:45.908Z,16.17
2018-10-09T08:57:53.981Z,16.25
2018-10-09T08:59:02.058Z,16.38
2018-10-09T09:00:10.120Z,16.31
2018-10-09T09:01:18.172Z,16.39
2018-10-09T09:02:26.248Z,16.38
2018-10-09T09:03:34.376Z,16.39
2018-10-09T09:04:42.389Z,16.38
2018-10-09T09:05:50.465Z,16.31
2018-10-09T09:06:58.537Z,16.28
2018-10-09T09:08:06.578Z,16.39
2018-10-09T09:09:14.677Z,16.43
2018-10-09T09:10:22.728Z,16.42
2018-10-09T09:11:30.810Z,16.30
2018-10-09T09:12:38.864Z,16.35
2018-10-09T09:13:46.952Z,16.46
2018-10-09T09:14:54.983Z,16.58
2018-10-09T09:16:03.056Z,16.34
2018-10-09T09:17:11.129Z,16.39
2018-10-09T09:18:19.189Z,16.34
2018-10-09T09:19:27.287Z,16.42
2018-10-09T09:20:35.430Z,16.43
2018-10-09T09:21:43.396Z,16.53
2018-10-09T09:22:51.477Z,16.63
2018-10-09T09:23:59.540Z,16.57
2018-10-09T09:25:07.604Z,16.73
2018-10-09T09:26:15.750Z,16.76
2018-10-09T09:27:24.095Z,16.79
2018-10-09T09:28:31.814Z,16.86
2018-10-09T09:29:39.880Z,16.73
2018-10-09T09:30:47.947Z,16.70
2018-10-09T09:31:56.001Z,16.76
2018-10-09T09:33:04.146Z,16.75
2018-10-09T09:34:12.201Z,16.76
2018-10-09T09:35:20.237Z,16.85
2018-10-09T09:36:28.281Z,16.85
2018-10-09T09:37:36.349Z,16.75
2018-10-09T09:38:44.414Z,16.61
2018-10-09T09:39:52.487Z,16.42
2018-10-09T09:41:00.563Z,16.45
2018-10-09T09:42:08.631Z,16.34
2018-10-09T09:43:16.681Z,16.48
2018-10-09T09:44:24.769Z,16.64
2018-10-09T09:45:32.817Z,16.70
2018-10-09T09:46:40.898Z,16.33
2018-10-09T09:47:48.988Z,16.04
2018-10-09T09:48:57.036Z,16.11
2018-10-09T09:50:05.099Z,16.12
2018-10-09T09:51:13.176Z,16.25
2018-10-09T09:52:21.244Z,16.33
2018-10-09T09:53:29.300Z,16.53
2018-10-09T09:54:37.397Z,16.63
2018-10-09T09:55:45.456Z,16.73
2018-10-09T09:56:53.533Z,16.78
2018-10-09T09:58:01.642Z,16.81
2018-10-09T09:59:09.802Z,16.89
2018-10-09T10:00:17.732Z,17.11
2018-10-09T10:01:25.807Z,17.14
2018-10-09T10:02:33.870Z,17.30
2018-10-09T10:03:41.974Z,17.37
2018-10-09T10:04:50.019Z,17.46
2018-10-09T10:05:58.342Z,17.54
2018-10-09T10:07:06.138Z,17.72
2018-10-09T10:08:14.213Z,17.75
2018-10-09T10:09:22.409Z,17.93
2018-10-09T10:10:30.332Z,17.86
2018-10-09T10:11:38.401Z,17.93
2018-10-09T10:12:46.499Z,17.96
2018-10-09T10:13:54.559Z,17.99
2018-10-09T10:15:02.611Z,17.97
2018-10-09T10:16:10.694Z,17.95
2018-10-09T10:17:18.776Z,17.46
2018-10-09T10:18:27.031Z,17.34
2018-10-09T10:19:34.884Z,17.49
2018-10-09T10:20:45.577Z,17.59
2018-10-09T10:21:53.658Z,17.52
2018-10-09T10:23:02.720Z,17.63
2018-10-09T10:36:49.163Z,17.68
2018-10-09T10:37:57.165Z,17.90
2018-10-09T10:39:05.245Z,18.03
2018-10-09T10:40:13.276Z,18.14
2018-10-09T10:42:29.495Z,18.51
2018-10-09T10:43:37.475Z,18.66
2018-10-09T10:44:45.563Z,18.41
2018-10-09T10:45:53.664Z,18.25
2018-10-09T10:47:01.697Z,18.20
2018-10-09T10:48:09.775Z,18.02
2018-10-09T10:49:17.907Z,18.11
2018-10-09T10:50:26.763Z,18.21
2018-10-09T10:51:33.996Z,18.36
2018-10-09T10:52:42.066Z,18.39
2018-10-09T10:53:50.124Z,18.37
2018-10-09T10:54:58.263Z,18.36
2018-10-09T10:56:06.268Z,18.35
2018-10-09T10:57:14.356Z,18.39
2018-10-09T10:58:22.391Z,18.54
2018-10-09T10:59:30.474Z,18.51
2018-10-09T11:00:38.543Z,18.66
2018-10-09T11:01:46.624Z,18.67
2018-10-09T11:02:54.688Z,18.80
2018-10-09T11:04:02.754Z,19.02
2018-10-09T11:05:10.808Z,19.13
2018-10-09T11:06:18.902Z,18.94
2018-10-09T11:07:26.966Z,18.91
2018-10-09T11:08:35.019Z,19.07
2018-10-09T11:09:43.108Z,19.14
2018-10-09T11:10:51.167Z,18.84
2018-10-09T11:11:59.227Z,18.81
2018-10-09T11:13:07.366Z,18.98
2018-10-09T11:14:15.382Z,19.11
2018-10-09T11:15:23.452Z,19.14
2018-10-09T11:16:31.532Z,19.25
2018-10-09T11:17:39.594Z,19.22
2018-10-09T11:18:47.665Z,19.16
2018-10-09T11:19:55.723Z,19.21
2018-10-09T11:21:03.834Z,19.22
2018-10-09T11:22:11.872Z,19.10
2018-10-09T11:23:19.948Z,19.08
2018-10-09T11:24:28.034Z,19.11
2018-10-09T11:25:36.086Z,19.07
2018-10-09T11:26:44.157Z,19.04
2018-10-09T11:27:52.235Z,18.92
2018-10-09T11:29:00.304Z,18.47
2018-10-09T11:30:08.380Z,18.36
2018-10-09T11:31:16.433Z,18.48
2018-10-09T11:32:24.567Z,18.69
2018-10-09T11:33:32.592Z,18.81
2018-10-09T11:34:40.653Z,18.94
2018-10-09T11:35:48.723Z,19.14
2018-10-09T11:36:56.793Z,19.25
2018-10-09T11:38:04.872Z,19.37
2018-10-09T11:39:12.932Z,19.48
2018-10-09T11:40:21.033Z,19.50
2018-10-09T11:41:29.089Z,19.55
2018-10-09T11:42:37.167Z,19.47
2018-10-09T11:43:45.224Z,19.62
2018-10-09T11:44:53.318Z,19.61
2018-10-09T11:46:01.394Z,19.59
2018-10-09T11:47:09.433Z,19.13
2018-10-09T11:48:17.510Z,18.91
2018-10-09T11:49:25.582Z,18.65
2018-10-09T11:50:33.649Z,18.39
2018-10-09T11:51:41.719Z,18.14
2018-10-09T11:52:49.786Z,18.12
2018-10-09T11:53:57.865Z,18.02
2018-10-09T11:55:05.912Z,18.05
2018-10-09T11:56:13.991Z,17.84
2018-10-09T11:57:22.070Z,17.95
2018-10-09T11:58:30.147Z,17.99
2018-10-09T11:59:38.211Z,18.02
2018-10-09T12:00:46.267Z,18.17
2018-10-09T12:01:54.364Z,18.14
2018-10-09T12:03:02.443Z,18.23
2018-10-09T12:04:10.474Z,18.25
2018-10-09T12:05:18.561Z,18.36
2018-10-09T12:06:26.632Z,18.39
2018-10-09T12:07:34.699Z,18.20
2018-10-09T12:08:42.780Z,18.25
2018-10-09T12:09:50.834Z,18.29
2018-10-09T12:10:58.908Z,18.27
2018-10-09T12:12:06.973Z,18.12
2018-10-09T12:13:15.041Z,18.15
2018-10-09T12:14:23.112Z,18.14
2018-10-09T12:15:31.172Z,18.18
2018-10-09T12:16:39.249Z,18.23
2018-10-09T12:17:47.323Z,18.36
2018-10-09T12:18:55.385Z,18.33
2018-10-09T12:20:03.453Z,18.50
2018-10-09T12:21:11.521Z,18.51
2018-10-09T12:22:19.579Z,18.62
2018-10-09T12:23:27.662Z,18.70
2018-10-09T12:24:35.723Z,18.67
2018-10-09T12:25:43.815Z,18.73
2018-10-09T12:26:51.906Z,18.73
2018-10-09T12:27:59.953Z,18.80
2018-10-09T12:29:08.009Z,18.66
2018-10-09T12:30:16.072Z,18.69
2018-10-09T12:31:24.175Z,18.78
2018-10-09T12:32:32.217Z,18.75
2018-10-09T12:33:40.282Z,18.72
2018-10-09T12:34:48.351Z,18.76
2018-10-09T12:35:56.412Z,18.84
2018-10-09T12:37:04.474Z,18.88
2018-10-09T12:38:12.599Z,18.98
2018-10-09T12:39:20.623Z,18.94
2018-10-09T12:40:28.681Z,18.92
2018-10-09T12:41:36.780Z,18.95
2018-10-09T12:42:44.828Z,18.92
2018-10-09T12:43:52.970Z,19.06
2018-10-09T12:45:00.957Z,18.92
2018-10-09T12:46:09.059Z,18.87
2018-10-09T12:47:17.118Z,18.70
2018-10-09T12:48:25.173Z,18.67
2018-10-09T12:49:33.257Z,18.65
2018-10-09T12:50:41.568Z,18.62
2018-10-09T12:51:49.369Z,18.78
2018-10-09T12:52:57.505Z,18.78
2018-10-09T12:54:05.501Z,18.63
2018-10-09T12:55:13.611Z,18.69
2018-10-09T12:56:21.643Z,18.67
2018-10-09T12:57:29.708Z,18.62
2018-10-09T12:58:37.935Z,18.66
2018-10-09T12:59:45.841Z,18.52
2018-10-09T13:00:53.932Z,18.42
2018-10-09T13:02:01.995Z,18.47
2018-10-09T13:03:10.089Z,18.62
2018-10-09T13:04:18.146Z,18.73
2018-10-09T13:05:26.243Z,18.75
2018-10-09T13:06:34.261Z,18.91
2018-10-09T13:07:42.342Z,18.91
2018-10-09T13:08:50.410Z,18.98
2018-10-09T13:09:58.476Z,19.06
2018-10-09T13:11:06.522Z,19.04
2018-10-09T13:12:14.631Z,19.02
2018-10-09T13:13:22.688Z,18.84
2018-10-09T13:14:30.757Z,18.82
2018-10-09T13:15:38.814Z,18.92
2018-10-09T13:16:46.885Z,18.94
2018-10-09T13:17:54.959Z,18.90
2018-10-09T13:19:03.024Z,18.99
2018-10-09T13:20:11.080Z,19.02
2018-10-09T13:21:19.277Z,19.13
2018-10-09T13:22:27.577Z,19.11
2018-10-09T13:23:35.302Z,19.22
2018-10-09T13:24:43.383Z,19.14
2018-10-09T13:25:51.504Z,19.11
2018-10-09T13:26:59.531Z,19.14
2018-10-09T13:28:07.577Z,19.13
2018-10-09T13:29:15.656Z,19.22
2018-10-09T13:30:23.750Z,19.23
2018-10-09T13:31:31.782Z,19.22
2018-10-09T13:32:39.858Z,19.22
2018-10-09T13:33:47.942Z,19.32
2018-10-09T13:34:56.031Z,19.36
2018-10-09T13:36:04.065Z,19.26
2018-10-09T13:37:12.136Z,19.39
2018-10-09T13:38:20.295Z,19.14
2018-10-09T13:39:28.271Z,19.18
2018-10-09T13:40:36.325Z,19.23
2018-10-09T13:41:44.428Z,19.39
2018-10-09T13:42:52.471Z,19.23
2018-10-09T13:44:00.586Z,19.37
2018-10-09T13:45:08.593Z,19.46
2018-10-09T13:46:16.658Z,19.43
2018-10-09T13:47:24.872Z,19.39
2018-10-09T13:48:32.822Z,19.41
2018-10-09T13:49:40.878Z,19.48
2018-10-09T13:50:49.054Z,19.37
2018-10-09T13:51:57.015Z,19.46
2018-10-09T13:53:05.072Z,19.46
2018-10-09T13:54:13.188Z,19.23
2018-10-09T13:55:21.329Z,19.23
2018-10-09T13:56:29.316Z,19.23
2018-10-09T13:57:37.394Z,19.22
2018-10-09T13:58:45.441Z,19.37
2018-10-09T13:59:53.508Z,19.28
2018-10-09T14:01:01.570Z,19.41
2018-10-09T14:02:09.636Z,19.40
2018-10-09T14:03:17.706Z,19.36
2018-10-09T14:04:25.781Z,19.25
2018-10-09T14:05:33.838Z,19.25
2018-10-09T14:06:41.914Z,19.23
2018-10-09T14:07:49.983Z,19.32
2018-10-09T14:08:58.059Z,19.29
2018-10-09T14:10:06.145Z,19.37
2018-10-09T14:11:14.189Z,19.39
2018-10-09T14:12:22.258Z,19.39
2018-10-09T14:13:30.330Z,19.44
2018-10-09T14:14:38.373Z,19.37
2018-10-09T14:15:46.451Z,19.41
2018-10-09T14:16:54.525Z,19.41
2018-10-09T14:18:02.703Z,19.36
2018-10-09T14:19:10.668Z,19.37
2018-10-09T14:20:18.759Z,19.39
2018-10-09T14:21:26.780Z,19.40
2018-10-09T14:22:34.969Z,19.37
2018-10-09T14:23:42.946Z,19.33
2018-10-09T14:24:51.015Z,19.21
2018-10-09T14:25:59.066Z,19.21
2018-10-09T14:27:07.148Z,19.28
2018-10-09T14:28:15.228Z,19.16
2018-10-09T14:29:23.306Z,19.18
2018-10-09T14:30:31.360Z,19.21
2018-10-09T14:31:39.419Z,19.16
2018-10-09T14:32:47.482Z,19.14
2018-10-09T14:33:55.554Z,19.14
2018-10-09T14:35:03.746Z,19.10
2018-10-09T14:36:11.697Z,18.99
2018-10-09T14:37:19.768Z,19.02
2018-10-09T14:38:27.826Z,18.98
2018-10-09T14:39:35.894Z,18.95
2018-10-09T14:40:43.979Z,18.90
2018-10-09T14:41:52.038Z,18.88
2018-10-09T14:43:00.104Z,18.85
2018-10-09T14:44:08.255Z,18.75
2018-10-09T14:45:16.256Z,18.65
2018-10-09T14:46:24.323Z,18.51
2018-10-09T14:47:32.380Z,18.51
2018-10-09T14:48:40.473Z,18.55
2018-10-09T14:49:48.518Z,18.45